createdAt,value
2023-05-23T00:00:08.647Z,95651.70
2023-05-23T00:08:56.813Z,95626.77
2023-05-23T00:17:22.130Z,95627.61
2023-05-23T00:25:48.450Z,95586.67
2023-05-23T00:34:11.571Z,95528.13
2023-05-23T00:42:34.399Z,95490.95
2023-05-23T00:50:57.654Z,95475.58
2023-05-23T01:09:18.592Z,95460.91
2023-05-23T01:17:42.434Z,95463.42
2023-05-23T01:26:26.334Z,95476.67
2023-05-23T01:34:55.920Z,95457.37
2023-05-23T01:43:19.296Z,95424.87
2023-05-23T01:51:42.795Z,95380.05
2023-05-23T02:00:07.612Z,95327.83
2023-05-23T02:08:38.706Z,95281.55
2023-05-23T02:17:01.593Z,95258.80
2023-05-23T02:25:24.548Z,95245.09
2023-05-23T02:33:47.478Z,95227.70
2023-05-23T02:42:11.016Z,95216.10
2023-05-23T02:50:34.066Z,95224.48
2023-05-23T02:58:57.191Z,95220.54
2023-05-23T03:07:28.024Z,95231.45
2023-05-23T03:15:51.906Z,95241.22
2023-05-23T03:24:14.796Z,95418.13
2023-05-23T03:32:38.092Z,95792.95
2023-05-23T03:41:01.588Z,95821.18
2023-05-23T03:49:24.636Z,95838.64
2023-05-23T03:57:48.110Z,96012.34
2023-05-23T04:06:13.605Z,96349.15
2023-05-23T04:14:39.930Z,96675.43
2023-05-23T04:23:03.981Z,96921.62
2023-05-23T04:31:29.090Z,97245.86
2023-05-23T04:39:53.378Z,97588.88
2023-05-23T04:48:39.041Z,97878.90
2023-05-23T04:57:02.477Z,98089.09
2023-05-23T05:05:26.036Z,98288.08
2023-05-23T05:13:50.150Z,98438.20
2023-05-23T05:22:13.156Z,98599.58
2023-05-23T05:30:37.715Z,98868.73
2023-05-23T05:39:02.482Z,99108.91
2023-05-23T05:47:26.243Z,99314.13
2023-05-23T05:55:49.894Z,99474.02
2023-05-23T06:04:14.240Z,99662.72
2023-05-23T06:12:37.900Z,99910.24
2023-05-23T06:21:01.102Z,100211.33
2023-05-23T06:29:25.094Z,100237.97
2023-05-23T06:37:49.719Z,100276.21
2023-05-23T06:46:13.051Z,100376.24
2023-05-23T06:54:40.702Z,100580.52
2023-05-23T07:03:04.528Z,100716.67
2023-05-23T07:11:28.032Z,100706.63
2023-05-23T07:19:54.486Z,100771.36
2023-05-23T07:28:18.403Z,100985.65
2023-05-23T07:36:42.429Z,101128.65
2023-05-23T07:45:07.941Z,101127.27
2023-05-23T07:53:32.823Z,101155.17
2023-05-23T08:01:56.264Z,101336.30
2023-05-23T08:10:21.817Z,101313.92
2023-05-23T08:18:45.187Z,101245.94
2023-05-23T08:27:09.142Z,101305.70
2023-05-23T08:35:36.845Z,101285.44
2023-05-23T08:44:03.300Z,101412.93
2023-05-23T08:52:32.727Z,101270.83
2023-05-23T09:00:56.152Z,101195.42
2023-05-23T09:09:19.690Z,101275.64
2023-05-23T09:17:43.263Z,101372.44
2023-05-23T09:26:09.486Z,101413.81
2023-05-23T09:34:32.765Z,101394.39
2023-05-23T09:42:55.811Z,101477.20
2023-05-23T09:51:23.262Z,101450.80
2023-05-23T09:59:54.723Z,101582.66
2023-05-23T10:08:29.846Z,101636.52
2023-05-23T10:17:01.739Z,101411.90
2023-05-23T10:25:25.098Z,101501.84
2023-05-23T10:33:58.542Z,101423.84
2023-05-23T10:42:37.042Z,101503.99
2023-05-23T10:51:08.717Z,101646.65
2023-05-23T10:59:32.272Z,101793.80
2023-05-23T11:08:11.516Z,101678.73
2023-05-23T11:16:42.541Z,101672.48
2023-05-23T11:25:12.375Z,101824.63
2023-05-23T11:33:35.489Z,101918.59
2023-05-23T11:42:02.463Z,101878.83
2023-05-23T11:50:25.654Z,101537.09
2023-05-23T11:58:48.825Z,101300.39
2023-05-23T12:07:11.697Z,101299.02
2023-05-23T12:15:34.691Z,101421.35
2023-05-23T12:23:57.785Z,101509.52
2023-05-23T12:32:25.163Z,101517.16
2023-05-23T12:40:48.058Z,101279.36
2023-05-23T12:49:11.871Z,101110.65
2023-05-23T12:57:35.640Z,101164.07
2023-05-23T13:05:59.445Z,101412.37
2023-05-23T13:14:22.337Z,101458.21
2023-05-23T13:22:45.341Z,101522.31
2023-05-23T13:31:08.272Z,101687.10
2023-05-23T13:39:32.031Z,101788.11
2023-05-23T13:47:54.896Z,101696.14
2023-05-23T13:56:18.255Z,101665.90
2023-05-23T14:04:41.230Z,101590.45
2023-05-23T14:13:04.113Z,101540.34
2023-05-23T14:21:28.379Z,101497.71
2023-05-23T14:29:51.255Z,101524.23
2023-05-23T14:38:14.114Z,101508.13
2023-05-23T14:46:37.719Z,101448.36
2023-05-23T14:55:01.160Z,101361.14
2023-05-23T15:03:24.255Z,101219.58
2023-05-23T15:11:49.490Z,101118.47
2023-05-23T15:20:12.600Z,101030.86
2023-05-23T15:28:35.726Z,100989.67
2023-05-23T15:36:58.637Z,100957.77
2023-05-23T15:45:22.147Z,101033.71
2023-05-23T15:54:00.075Z,101071.97
2023-05-23T16:02:25.718Z,101003.05
2023-05-23T16:10:51.669Z,100899.59
2023-05-23T16:19:15.499Z,100805.46
2023-05-23T16:27:39.492Z,100710.14
2023-05-23T16:36:02.699Z,100639.60
2023-05-23T16:44:25.811Z,100589.35
2023-05-23T16:52:49.536Z,100571.11
2023-05-23T17:01:13.350Z,100579.55
2023-05-23T17:09:37.292Z,100585.02
2023-05-23T17:18:00.294Z,100531.95
2023-05-23T17:26:26.529Z,100422.79
2023-05-23T17:34:50.042Z,100290.04
2023-05-23T17:43:13.290Z,100143.35
2023-05-23T17:51:37.240Z,99994.74
2023-05-23T18:00:00.316Z,99850.52
2023-05-23T18:08:23.491Z,99683.71
2023-05-23T18:16:47.398Z,99492.27
2023-05-23T18:25:11.860Z,99292.91
2023-05-23T18:33:35.747Z,99124.63
2023-05-23T18:42:00.052Z,98934.17
2023-05-23T18:50:24.428Z,98754.34
2023-05-23T18:58:49.908Z,98581.81
2023-05-23T19:07:14.294Z,98432.83
2023-05-23T19:15:37.476Z,98280.15
2023-05-23T19:24:02.357Z,98125.64
2023-05-23T19:32:25.466Z,98001.92
2023-05-23T19:40:49.426Z,97912.90
2023-05-23T19:49:15.218Z,97850.40
2023-05-23T19:57:38.402Z,97802.17
2023-05-23T20:06:01.673Z,97771.83
2023-05-23T20:14:26.745Z,97736.55
2023-05-23T20:22:51.620Z,97708.51
2023-05-23T20:31:16.487Z,97678.77
2023-05-23T20:39:41.702Z,97646.98
2023-05-23T20:48:04.597Z,97629.61
2023-05-23T20:56:27.553Z,97616.16
2023-05-23T21:04:51.022Z,97589.88
2023-05-23T21:13:13.968Z,97533.88
2023-05-23T21:21:37.552Z,97474.45
2023-05-23T21:30:00.403Z,97436.72
2023-05-23T21:38:25.026Z,97439.63
2023-05-23T21:46:48.015Z,97461.82
2023-05-23T21:55:11.075Z,97485.36
2023-05-23T22:03:34.135Z,97487.48
2023-05-23T22:11:57.797Z,97493.16
2023-05-23T22:20:22.356Z,97509.30
2023-05-23T22:28:46.171Z,97523.32
2023-05-23T22:37:10.153Z,97550.21
2023-05-23T22:45:42.545Z,97582.30
2023-05-23T22:54:05.549Z,97627.23
2023-05-23T23:02:28.790Z,97659.08
2023-05-23T23:10:51.772Z,97680.94
2023-05-23T23:19:14.720Z,97689.66
2023-05-23T23:27:38.630Z,97704.42
2023-05-23T23:36:01.510Z,97708.45
2023-05-23T23:44:24.415Z,97695.65
2023-05-23T23:52:47.494Z,97672.72
